NCAR-RAP Real-Time Weather Data

Output produced by METARs form (19 November 2018  11:51 UTC)
found at http://weather.rap.ucar.edu/surface/
 
Conditions at: KCTY observed 19 November 2018  11:35 UTC
Temperature: 13.0°C (55°F)
Dewpoint: 13.0°C (55°F) [RH = 100%]
Pressure (altimeter): 30.14 inches Hg (1020.7 mb)
Winds: calm
Visibility: 0.25 miles (0.40 km)
Ceiling: 200 feet AGL
Clouds: overcast cloud deck at 200 feet AGL
Present Weather: FG  (fog)
KCTY 191135Z AUTO 00000KT M1/4SM FG OVC002 13/13 A3014 RMK AO2

Conditions at: KCTY observed 19 November 2018  11:15 UTC
Temperature: 12.5°C (54°F)
Dewpoint: 12.4°C (54°F) [RH = 99%]
Pressure (altimeter): 30.14 inches Hg (1020.7 mb)
Winds: calm
Visibility: 0.25 miles (0.40 km)
Ceiling: 200 feet AGL
Clouds: overcast cloud deck at 200 feet AGL
Present Weather: FG  (fog)
KCTY 191115Z AUTO 00000KT M1/4SM FG OVC002 12/12 A3014 RMK AO2 T01250124

Conditions at: KCTY observed 19 November 2018  10:55 UTC
Temperature: 12.3°C (54°F)
Dewpoint: 12.3°C (54°F) [RH = 100%]
Pressure (altimeter): 30.13 inches Hg (1020.4 mb)
Winds: calm
Visibility: 0.25 miles (0.40 km)
Ceiling: 200 feet AGL
Clouds: overcast cloud deck at 200 feet AGL
Present Weather: FG  (fog)
KCTY 191055Z AUTO 00000KT M1/4SM FG OVC002 12/12 A3013 RMK AO2 T01230123

Conditions at: KCTY observed 19 November 2018  10:35 UTC
Temperature: 12.4°C (54°F)
Dewpoint: 12.4°C (54°F) [RH = 100%]
Pressure (altimeter): 30.13 inches Hg (1020.4 mb)
Winds: from the N (360 degrees) at 3 MPH (3 knots; 1.6 m/s)
Visibility: 0.25 miles (0.40 km)
Ceiling: 200 feet AGL
Clouds: overcast cloud deck at 200 feet AGL
Present Weather: FG  (fog)
KCTY 191035Z AUTO 36003KT M1/4SM FG OVC002 12/12 A3013 RMK AO2 T01240124

Conditions at: KCTY observed 19 November 2018  10:15 UTC
Temperature: 12.0°C (54°F)
Dewpoint: 12.0°C (54°F) [RH = 100%]
Pressure (altimeter): 30.13 inches Hg (1020.4 mb)
Winds: calm
Visibility: 0.25 miles (0.40 km)
Ceiling: 200 feet AGL
Clouds: overcast cloud deck at 200 feet AGL
Present Weather: FG  (fog)
KCTY 191015Z AUTO 00000KT M1/4SM FG OVC002 12/12 A3013 RMK AO2 T0120////

Conditions at: KCTY observed 19 November 2018  09:55 UTC
Temperature: 11.4°C (53°F)
Dewpoint: 11.0°C (52°F) [RH = 97%]
Pressure (altimeter): 30.12 inches Hg (1020.1 mb)
Winds: calm
Visibility: 0.25 miles (0.40 km)
Ceiling: 200 feet AGL
Clouds: overcast cloud deck at 200 feet AGL
Present Weather: FG  (fog)
KCTY 190955Z AUTO 00000KT M1/4SM FG OVC002 11/11 A3012 RMK AO2 T0114////

Conditions at: KCTY observed 19 November 2018  09:35 UTC
Temperature: 10.5°C (51°F)
Dewpoint: 10.2°C (50°F) [RH = 98%]
Pressure (altimeter): 30.11 inches Hg (1019.7 mb)
Winds: calm
Visibility: 0.50 miles (0.80 km)
Ceiling: 200 feet AGL
Clouds: overcast cloud deck at 200 feet AGL
Present Weather: FG  (fog)
KCTY 190935Z AUTO 00000KT 1/2SM FG OVC002 10/10 A3011 RMK AO2 T01050102

Conditions at: KCTY observed 19 November 2018  09:15 UTC
Temperature: 10.1°C (50°F)
Dewpoint: 9.7°C (49°F) [RH = 97%]
Pressure (altimeter): 30.11 inches Hg (1019.7 mb)
Winds: calm
Visibility: 10 or more miles (16+ km)
Ceiling: at least 12,000 feet AGL
Clouds: scattered clouds at 200 feet AGL
Present Weather: automated observation with no human augmentation;
there may or may not be significant weather present at this time
KCTY 190915Z AUTO 00000KT 10SM SCT002 10/10 A3011 RMK AO2 T01010097

Conditions at: KCTY observed 19 November 2018  08:55 UTC
Temperature: 10.4°C (51°F)
Dewpoint: 9.8°C (50°F) [RH = 96%]
Pressure (altimeter): 30.11 inches Hg (1019.7 mb)
Winds: calm
Visibility: 10 or more miles (16+ km)
Ceiling: at least 12,000 feet AGL
Clouds: scattered clouds at 400 feet AGL
Present Weather: automated observation with no human augmentation;
there may or may not be significant weather present at this time
KCTY 190855Z AUTO 00000KT 10SM SCT004 10/10 A3011 RMK AO2 T01040098

Conditions at: KCTY observed 19 November 2018  08:35 UTC
Temperature: 10.6°C (51°F)
Dewpoint: 10.1°C (50°F) [RH = 97%]
Pressure (altimeter): 30.11 inches Hg (1019.7 mb)
Winds: calm
Visibility: 10 or more miles (16+ km)
Ceiling: at least 12,000 feet AGL
Clouds: scattered clouds at 400 feet AGL
Present Weather: automated observation with no human augmentation;
there may or may not be significant weather present at this time
KCTY 190835Z AUTO 00000KT 10SM SCT004 11/10 A3011 RMK AO2 T01060101

Conditions at: KCTY observed 19 November 2018  08:15 UTC
Temperature: 10.6°C (51°F)
Dewpoint: 10.1°C (50°F) [RH = 97%]
Pressure (altimeter): 30.11 inches Hg (1019.7 mb)
Winds: from the NNE (30 degrees) at 3 MPH (3 knots; 1.6 m/s)
Visibility: 10 or more miles (16+ km)
Ceiling: at least 12,000 feet AGL
Clouds: sky clear below 12,000 feet AGL
Present Weather: automated observation with no human augmentation;
there may or may not be significant weather present at this time
KCTY 190815Z AUTO 03003KT 10SM CLR 11/10 A3011 RMK AO2 T01060101

Conditions at: KCTY observed 19 November 2018  07:55 UTC
Temperature: 11.0°C (52°F)
Dewpoint: 10.6°C (51°F) [RH = 97%]
Pressure (altimeter): 30.11 inches Hg (1019.7 mb)
Winds: calm
Visibility: 10 or more miles (16+ km)
Ceiling: at least 12,000 feet AGL
Clouds: sky clear below 12,000 feet AGL
Present Weather: automated observation with no human augmentation;
there may or may not be significant weather present at this time
KCTY 190755Z AUTO 00000KT 10SM CLR 11/11 A3011 RMK AO2 T01100106

Conditions at: KCTY observed 19 November 2018  07:35 UTC
Temperature: 11.3°C (52°F)
Dewpoint: 11.0°C (52°F) [RH = 98%]
Pressure (altimeter): 30.12 inches Hg (1020.1 mb)
Winds: calm
Visibility: 7 miles (11 km)
Ceiling: at least 12,000 feet AGL
Clouds: sky clear below 12,000 feet AGL
Present Weather: BR  (mist)
KCTY 190735Z AUTO 00000KT 7SM BR CLR 11/11 A3012 RMK AO2 T01130110

Conditions at: KCTY observed 19 November 2018  07:15 UTC
Temperature: 11.0°C (52°F)
Dewpoint: 10.6°C (51°F) [RH = 97%]
Pressure (altimeter): 30.13 inches Hg (1020.4 mb)
Winds: calm
Visibility: 10 or more miles (16+ km)
Ceiling: at least 12,000 feet AGL
Clouds: sky clear below 12,000 feet AGL
Present Weather: automated observation with no human augmentation;
there may or may not be significant weather present at this time
KCTY 190715Z AUTO 00000KT 10SM CLR 11/11 A3013 RMK AO2 T01100106

Conditions at: KCTY observed 19 November 2018  06:55 UTC
Temperature: 11.4°C (53°F)
Dewpoint: 10.9°C (52°F) [RH = 97%]
Pressure (altimeter): 30.13 inches Hg (1020.4 mb)
Winds: calm
Visibility: 10 or more miles (16+ km)
Ceiling: at least 12,000 feet AGL
Clouds: sky clear below 12,000 feet AGL
Present Weather: automated observation with no human augmentation;
there may or may not be significant weather present at this time
KCTY 190655Z AUTO 00000KT 10SM CLR 11/11 A3013 RMK AO2 T01140109

Conditions at: KCTY observed 19 November 2018  06:35 UTC
Temperature: 11.7°C (53°F)
Dewpoint: 11.3°C (52°F) [RH = 97%]
Pressure (altimeter): 30.13 inches Hg (1020.4 mb)
Winds: calm
Visibility: 10 or more miles (16+ km)
Ceiling: at least 12,000 feet AGL
Clouds: sky clear below 12,000 feet AGL
Present Weather: automated observation with no human augmentation;
there may or may not be significant weather present at this time
KCTY 190635Z AUTO 00000KT 10SM CLR 12/11 A3013 RMK AO2 T01170113

Conditions at: KCTY observed 19 November 2018  06:15 UTC
Temperature: 11.8°C (53°F)
Dewpoint: 11.5°C (53°F) [RH = 98%]
Pressure (altimeter): 30.13 inches Hg (1020.4 mb)
Winds: calm
Visibility: 10 or more miles (16+ km)
Ceiling: at least 12,000 feet AGL
Clouds: sky clear below 12,000 feet AGL
Present Weather: automated observation with no human augmentation;
there may or may not be significant weather present at this time
KCTY 190615Z AUTO 00000KT 10SM CLR 12/11 A3013 RMK AO2 T01180115

Conditions at: KCTY observed 19 November 2018  05:55 UTC
Temperature: 11.3°C (52°F)
Dewpoint: 10.7°C (51°F) [RH = 96%]
Pressure (altimeter): 30.13 inches Hg (1020.4 mb)
Winds: calm
Visibility: 10 or more miles (16+ km)
Ceiling: at least 12,000 feet AGL
Clouds: sky clear below 12,000 feet AGL
Present Weather: automated observation with no human augmentation;
there may or may not be significant weather present at this time
KCTY 190555Z AUTO 00000KT 10SM CLR 11/11 A3013 RMK AO2 T01130107 10170 20112

Conditions at: KCTY observed 19 November 2018  05:35 UTC
Temperature: 11.8°C (53°F)
Dewpoint: 11.2°C (52°F) [RH = 96%]
Pressure (altimeter): 30.13 inches Hg (1020.4 mb)
Winds: from the N (10 degrees) at 3 MPH (3 knots; 1.6 m/s)
Visibility: 10 or more miles (16+ km)
Ceiling: at least 12,000 feet AGL
Clouds: sky clear below 12,000 feet AGL
Present Weather: automated observation with no human augmentation;
there may or may not be significant weather present at this time
KCTY 190535Z AUTO 01003KT 10SM CLR 12/11 A3013 RMK AO2 T01180112

Conditions at: KCTY observed 19 November 2018  05:15 UTC
Temperature: 11.9°C (53°F)
Dewpoint: 11.7°C (53°F) [RH = 99%]
Pressure (altimeter): 30.14 inches Hg (1020.7 mb)
Winds: calm
Visibility: 7 miles (11 km)
Ceiling: at least 12,000 feet AGL
Clouds: sky clear below 12,000 feet AGL
Present Weather: automated observation with no human augmentation;
there may or may not be significant weather present at this time
KCTY 190515Z AUTO 00000KT 7SM CLR 12/12 A3014 RMK AO2 T01190117

Conditions at: KCTY observed 19 November 2018  04:55 UTC
Temperature: 12.0°C (54°F)
Dewpoint: 11.7°C (53°F) [RH = 98%]
Pressure (altimeter): 30.14 inches Hg (1020.7 mb)
Winds: calm
Visibility: 10 or more miles (16+ km)
Ceiling: at least 12,000 feet AGL
Clouds: sky clear below 12,000 feet AGL
Present Weather: automated observation with no human augmentation;
there may or may not be significant weather present at this time
KCTY 190455Z AUTO 00000KT 10SM CLR 12/12 A3014 RMK AO2 T01200117

Conditions at: KCTY observed 19 November 2018  04:35 UTC
Temperature: 12.0°C (54°F)
Dewpoint: 11.3°C (52°F) [RH = 95%]
Pressure (altimeter): 30.14 inches Hg (1020.7 mb)
Winds: calm
Visibility: 10 or more miles (16+ km)
Ceiling: at least 12,000 feet AGL
Clouds: sky clear below 12,000 feet AGL
Present Weather: automated observation with no human augmentation;
there may or may not be significant weather present at this time
KCTY 190435Z AUTO 00000KT 10SM CLR 12/11 A3014 RMK AO2 T01200113

Conditions at: KCTY observed 19 November 2018  04:15 UTC
Temperature: 12.0°C (54°F)
Dewpoint: 11.4°C (53°F) [RH = 96%]
Pressure (altimeter): 30.15 inches Hg (1021.1 mb)
Winds: calm
Visibility: 10 or more miles (16+ km)
Ceiling: at least 12,000 feet AGL
Clouds: sky clear below 12,000 feet AGL
Present Weather: automated observation with no human augmentation;
there may or may not be significant weather present at this time
KCTY 190415Z AUTO 00000KT 10SM CLR 12/11 A3015 RMK AO2 T01200114

Conditions at: KCTY observed 19 November 2018  03:55 UTC
Temperature: 12.5°C (54°F)
Dewpoint: 12.2°C (54°F) [RH = 98%]
Pressure (altimeter): 30.15 inches Hg (1021.1 mb)
Winds: calm
Visibility: 10 or more miles (16+ km)
Ceiling: at least 12,000 feet AGL
Clouds: sky clear below 12,000 feet AGL
Present Weather: automated observation with no human augmentation;
there may or may not be significant weather present at this time
KCTY 190355Z AUTO 00000KT 10SM CLR 13/12 A3015 RMK AO2 T01250122

Conditions at: KCTY observed 19 November 2018  03:35 UTC
Temperature: 12.8°C (55°F)
Dewpoint: 12.4°C (54°F) [RH = 97%]
Pressure (altimeter): 30.16 inches Hg (1021.4 mb)
Winds: calm
Visibility: 10 or more miles (16+ km)
Ceiling: at least 12,000 feet AGL
Clouds: scattered clouds at 6500 feet AGL
Present Weather: automated observation with no human augmentation;
there may or may not be significant weather present at this time
KCTY 190335Z AUTO 00000KT 10SM SCT065 13/12 A3016 RMK AO2 T01280124

Conditions at: KCTY observed 19 November 2018  03:15 UTC
Temperature: 13.0°C (55°F)
Dewpoint: 12.6°C (55°F) [RH = 97%]
Pressure (altimeter): 30.16 inches Hg (1021.4 mb)
Winds: calm
Visibility: 10 or more miles (16+ km)
Ceiling: at least 12,000 feet AGL
Clouds: scattered clouds at 6500 feet AGL
Present Weather: automated observation with no human augmentation;
there may or may not be significant weather present at this time
KCTY 190315Z AUTO 00000KT 10SM SCT065 13/13 A3016 RMK AO2 T01300126

Conditions at: KCTY observed 19 November 2018  02:55 UTC
Temperature: 13.4°C (56°F)
Dewpoint: 12.8°C (55°F) [RH = 96%]
Pressure (altimeter): 30.16 inches Hg (1021.4 mb)
Winds: calm
Visibility: 10 or more miles (16+ km)
Ceiling: at least 12,000 feet AGL
Clouds: sky clear below 12,000 feet AGL
Present Weather: automated observation with no human augmentation;
there may or may not be significant weather present at this time
KCTY 190255Z AUTO 00000KT 10SM CLR 13/13 A3016 RMK AO2 T01340128

Conditions at: KCTY observed 19 November 2018  02:35 UTC
Temperature: 13.5°C (56°F)
Dewpoint: 12.7°C (55°F) [RH = 95%]
Pressure (altimeter): 30.16 inches Hg (1021.4 mb)
Winds: calm
Visibility: 10 or more miles (16+ km)
Ceiling: at least 12,000 feet AGL
Clouds: sky clear below 12,000 feet AGL
Present Weather: automated observation with no human augmentation;
there may or may not be significant weather present at this time
KCTY 190235Z AUTO 00000KT 10SM CLR 13/13 A3016 RMK AO2 T01350127

Conditions at: KCTY observed 19 November 2018  02:15 UTC
Temperature: 13.7°C (57°F)
Dewpoint: 12.8°C (55°F) [RH = 94%]
Pressure (altimeter): 30.15 inches Hg (1021.1 mb)
Winds: calm
Visibility: 10 or more miles (16+ km)
Ceiling: at least 12,000 feet AGL
Clouds: sky clear below 12,000 feet AGL
Present Weather: automated observation with no human augmentation;
there may or may not be significant weather present at this time
KCTY 190215Z AUTO 00000KT 10SM CLR 14/13 A3015 RMK AO2 T01370128

Conditions at: KCTY observed 19 November 2018  01:55 UTC
Temperature: 13.6°C (56°F)
Dewpoint: 12.9°C (55°F) [RH = 96%]
Pressure (altimeter): 30.15 inches Hg (1021.1 mb)
Winds: calm
Visibility: 10 or more miles (16+ km)
Ceiling: at least 12,000 feet AGL
Clouds: sky clear below 12,000 feet AGL
Present Weather: automated observation with no human augmentation;
there may or may not be significant weather present at this time
KCTY 190155Z AUTO 00000KT 10SM CLR 14/13 A3015 RMK AO2 T01360129

Conditions at: KCTY observed 19 November 2018  01:35 UTC
Temperature: 14.1°C (57°F)
Dewpoint: 13.3°C (56°F) [RH = 95%]
Pressure (altimeter): 30.14 inches Hg (1020.7 mb)
Winds: calm
Visibility: 10 or more miles (16+ km)
Ceiling: at least 12,000 feet AGL
Clouds: sky clear below 12,000 feet AGL
Present Weather: automated observation with no human augmentation;
there may or may not be significant weather present at this time
KCTY 190135Z AUTO 00000KT 10SM CLR 14/13 A3014 RMK AO2 T01410133

Conditions at: KCTY observed 19 November 2018  01:15 UTC
Temperature: 15.1°C (59°F)
Dewpoint: 14.0°C (57°F) [RH = 93%]
Pressure (altimeter): 30.15 inches Hg (1021.1 mb)
Winds: calm
Visibility: 10 or more miles (16+ km)
Ceiling: at least 12,000 feet AGL
Clouds: sky clear below 12,000 feet AGL
Present Weather: automated observation with no human augmentation;
there may or may not be significant weather present at this time
KCTY 190115Z AUTO 00000KT 10SM CLR 15/14 A3015 RMK AO2 T01510140

Conditions at: KCTY observed 19 November 2018  00:55 UTC
Temperature: 15.7°C (60°F)
Dewpoint: 14.0°C (57°F) [RH = 90%]
Pressure (altimeter): 30.15 inches Hg (1021.1 mb)
Winds: calm
Visibility: 10 or more miles (16+ km)
Ceiling: at least 12,000 feet AGL
Clouds: sky clear below 12,000 feet AGL
Present Weather: automated observation with no human augmentation;
there may or may not be significant weather present at this time
KCTY 190055Z AUTO 00000KT 10SM CLR 16/14 A3015 RMK AO2 T01570140

Conditions at: KCTY observed 19 November 2018  00:35 UTC
Temperature: 16.0°C (61°F)
Dewpoint: 14.0°C (57°F) [RH = 88%]
Pressure (altimeter): 30.14 inches Hg (1020.7 mb)
Winds: from the WNW (290 degrees) at 3 MPH (3 knots; 1.6 m/s)
Visibility: 10 or more miles (16+ km)
Ceiling: at least 12,000 feet AGL
Clouds: sky clear below 12,000 feet AGL
Present Weather: automated observation with no human augmentation;
there may or may not be significant weather present at this time
KCTY 190035Z AUTO 29003KT 10SM CLR 16/14 A3014 RMK AO2 T01600140

Conditions at: KCTY observed 19 November 2018  00:15 UTC
Temperature: 16.8°C (62°F)
Dewpoint: 14.3°C (58°F) [RH = 85%]
Pressure (altimeter): 30.14 inches Hg (1020.7 mb)
Winds: from the WNW (300 degrees) at 6 MPH (5 knots; 2.6 m/s)
Visibility: 10 or more miles (16+ km)
Ceiling: at least 12,000 feet AGL
Clouds: sky clear below 12,000 feet AGL
Present Weather: automated observation with no human augmentation;
there may or may not be significant weather present at this time
KCTY 190015Z AUTO 30005KT 10SM CLR 17/14 A3014 RMK AO2 T01680143

Conditions at: KCTY observed 18 November 2018  23:55 UTC
Temperature: 16.9°C (62°F)
Dewpoint: 14.5°C (58°F) [RH = 86%]
Pressure (altimeter): 30.14 inches Hg (1020.7 mb)
Winds: from the WNW (300 degrees) at 7 MPH (6 knots; 3.1 m/s)
Visibility: 10 or more miles (16+ km)
Ceiling: at least 12,000 feet AGL
Clouds: sky clear below 12,000 feet AGL
Present Weather: automated observation with no human augmentation;
there may or may not be significant weather present at this time
KCTY 182355Z AUTO 30006KT 10SM CLR 17/14 A3014 RMK AO2 T01690145 10252 20162 402520057

Conditions at: KCTY observed 18 November 2018  23:35 UTC
Temperature: 17.2°C (63°F)
Dewpoint: 14.4°C (58°F) [RH = 84%]
Pressure (altimeter): 30.13 inches Hg (1020.4 mb)
Winds: from the WNW (300 degrees) at 6 MPH (5 knots; 2.6 m/s)
Visibility: 10 or more miles (16+ km)
Ceiling: at least 12,000 feet AGL
Clouds: sky clear below 12,000 feet AGL
Present Weather: automated observation with no human augmentation;
there may or may not be significant weather present at this time
KCTY 182335Z AUTO 30005KT 10SM CLR 17/14 A3013 RMK AO2 T01720144

Conditions at: KCTY observed 18 November 2018  23:15 UTC
Temperature: 17.1°C (63°F)
Dewpoint: 14.6°C (58°F) [RH = 85%]
Pressure (altimeter): 30.12 inches Hg (1020.1 mb)
Winds: from the WNW (290 degrees) at 6 MPH (5 knots; 2.6 m/s)
Visibility: 10 or more miles (16+ km)
Ceiling: at least 12,000 feet AGL
Clouds: sky clear below 12,000 feet AGL
Present Weather: automated observation with no human augmentation;
there may or may not be significant weather present at this time
KCTY 182315Z AUTO 29005KT 10SM CLR 17/15 A3012 RMK AO2 T01710146

Conditions at: KCTY observed 18 November 2018  22:55 UTC
Temperature: 17.7°C (64°F)
Dewpoint: 15.3°C (60°F) [RH = 86%]
Pressure (altimeter): 30.11 inches Hg (1019.7 mb)
Winds: from the W (280 degrees) at 3 MPH (3 knots; 1.6 m/s)
Visibility: 10 or more miles (16+ km)
Ceiling: at least 12,000 feet AGL
Clouds: sky clear below 12,000 feet AGL
Present Weather: automated observation with no human augmentation;
there may or may not be significant weather present at this time
KCTY 182255Z AUTO 28003KT 10SM CLR 18/15 A3011 RMK AO2 T01770153

Conditions at: KCTY observed 18 November 2018  22:35 UTC
Temperature: 19.2°C (67°F)
Dewpoint: 15.3°C (60°F) [RH = 78%]
Pressure (altimeter): 30.11 inches Hg (1019.7 mb)
Winds: from the WNW (300 degrees) at 3 MPH (3 knots; 1.6 m/s)
Visibility: 10 or more miles (16+ km)
Ceiling: at least 12,000 feet AGL
Clouds: sky clear below 12,000 feet AGL
Present Weather: automated observation with no human augmentation;
there may or may not be significant weather present at this time
KCTY 182235Z AUTO 30003KT 10SM CLR 19/15 A3011 RMK AO2 T01920153

Conditions at: KCTY observed 18 November 2018  22:15 UTC
Temperature: 21.0°C (70°F)
Dewpoint: 15.0°C (59°F) [RH = 69%]
Pressure (altimeter): 30.11 inches Hg (1019.7 mb)
Winds: calm
Visibility: 10 or more miles (16+ km)
Ceiling: at least 12,000 feet AGL
Clouds: sky clear below 12,000 feet AGL
Present Weather: automated observation with no human augmentation;
there may or may not be significant weather present at this time
KCTY 182215Z AUTO 00000KT 10SM CLR 21/15 A3011 RMK AO2

Conditions at: KCTY observed 18 November 2018  21:55 UTC
Temperature: 22.6°C (73°F)
Dewpoint: 14.9°C (59°F) [RH = 62%]
Pressure (altimeter): 30.11 inches Hg (1019.7 mb)
Winds: calm
Visibility: 10 or more miles (16+ km)
Ceiling: at least 12,000 feet AGL
Clouds: sky clear below 12,000 feet AGL
Present Weather: automated observation with no human augmentation;
there may or may not be significant weather present at this time
KCTY 182155Z AUTO 00000KT 10SM CLR 23/15 A3011 RMK AO2 T02260149

Conditions at: KCTY observed 18 November 2018  21:30 UTC
Temperature: 23.8°C (75°F)
Dewpoint: 12.5°C (54°F) [RH = 49%]
Pressure (altimeter): 30.11 inches Hg (1019.7 mb)
Winds: calm
Visibility: 10 or more miles (16+ km)
Ceiling: at least 12,000 feet AGL
Clouds: sky clear below 12,000 feet AGL
Present Weather: automated observation with no human augmentation;
there may or may not be significant weather present at this time
KCTY 182130Z AUTO 00000KT 10SM CLR 24/13 A3011 RMK AO2 T02380125

Conditions at: KCTY observed 18 November 2018  21:15 UTC
Temperature: 23.8°C (75°F)
Dewpoint: 13.0°C (55°F) [RH = 51%]
Pressure (altimeter): 30.11 inches Hg (1019.7 mb)
Winds: from the SE (130 degrees) at 3 MPH (3 knots; 1.6 m/s)
Visibility: 10 or more miles (16+ km)
Ceiling: at least 12,000 feet AGL
Clouds: sky clear below 12,000 feet AGL
Present Weather: automated observation with no human augmentation;
there may or may not be significant weather present at this time
KCTY 182115Z AUTO 13003KT 10SM CLR 24/13 A3011 RMK AO2 T02380130

Conditions at: KCTY observed 18 November 2018  20:55 UTC
Temperature: 23.2°C (74°F)
Dewpoint: 12.5°C (54°F) [RH = 51%]
Pressure (altimeter): 30.11 inches Hg (1019.7 mb)
Winds: calm
Visibility: 10 or more miles (16+ km)
Ceiling: at least 12,000 feet AGL
Clouds: sky clear below 12,000 feet AGL
Present Weather: automated observation with no human augmentation;
there may or may not be significant weather present at this time
KCTY 182055Z AUTO 00000KT 10SM CLR 23/13 A3011 RMK AO2 T02320125

Conditions at: KCTY observed 18 November 2018  20:35 UTC
Temperature: 24.5°C (76°F)
Dewpoint: 13.2°C (56°F) [RH = 49%]
Pressure (altimeter): 30.11 inches Hg (1019.7 mb)
Winds: from the SSW (200 degrees) at 3 MPH (3 knots; 1.6 m/s)
Visibility: 10 or more miles (16+ km)
Ceiling: at least 12,000 feet AGL
Clouds: scattered clouds at 5000 feet AGL
Present Weather: automated observation with no human augmentation;
there may or may not be significant weather present at this time
KCTY 182035Z AUTO 20003KT 10SM SCT050 24/13 A3011 RMK AO2 T02450132

Conditions at: KCTY observed 18 November 2018  20:15 UTC
Temperature: 24.2°C (76°F)
Dewpoint: 12.7°C (55°F) [RH = 49%]
Pressure (altimeter): 30.11 inches Hg (1019.7 mb)
Winds: from the E (90 degrees) at 5 MPH (4 knots; 2.1 m/s)
Visibility: 10 or more miles (16+ km)
Ceiling: 5000 feet AGL
Clouds: broken clouds at 5000 feet AGL
Present Weather: automated observation with no human augmentation;
there may or may not be significant weather present at this time
KCTY 182015Z AUTO 09004KT 10SM BKN050 24/13 A3011 RMK AO2 T02420127

Conditions at: KCTY observed 18 November 2018  19:55 UTC
Temperature: 24.2°C (76°F)
Dewpoint: 12.3°C (54°F) [RH = 47%]
Pressure (altimeter): 30.12 inches Hg (1020.1 mb)
Winds: calm
Visibility: 10 or more miles (16+ km)
Ceiling: at least 12,000 feet AGL
Clouds: sky clear below 12,000 feet AGL
Present Weather: automated observation with no human augmentation;
there may or may not be significant weather present at this time
KCTY 181955Z AUTO 00000KT 10SM CLR 24/12 A3012 RMK AO2 T02420123

Conditions at: KCTY observed 18 November 2018  19:35 UTC
Temperature: 24.0°C (75°F)
Dewpoint: 12.7°C (55°F) [RH = 49%]
Pressure (altimeter): 30.12 inches Hg (1020.1 mb)
Winds: calm
Visibility: 10 or more miles (16+ km)
Ceiling: at least 12,000 feet AGL
Clouds: scattered clouds at 5000 feet AGL
Present Weather: automated observation with no human augmentation;
there may or may not be significant weather present at this time
KCTY 181935Z AUTO 00000KT 10SM SCT050 24/13 A3012 RMK AO2 T02400127

Conditions at: KCTY observed 18 November 2018  19:15 UTC
Temperature: 24.0°C (75°F)
Dewpoint: 13.0°C (55°F) [RH = 50%]
Pressure (altimeter): 30.14 inches Hg (1020.7 mb)
Winds: from the WSW (250 degrees) at 5 MPH (4 knots; 2.1 m/s)
Visibility: 10 or more miles (16+ km)
Ceiling: 4300 feet AGL
Clouds: broken clouds at 4300 feet AGL
overcast cloud deck at 5000 feet AGL
Present Weather: automated observation with no human augmentation;
there may or may not be significant weather present at this time
KCTY 181915Z AUTO 25004KT 10SM BKN043 OVC050 24/13 A3014 RMK AO2

Conditions at: KCTY observed 18 November 2018  18:55 UTC
Temperature: 24.6°C (76°F)
Dewpoint: 13.6°C (56°F) [RH = 50%]
Pressure (altimeter): 30.14 inches Hg (1020.7 mb)
Winds: from the NNW (330 degrees) at 5 MPH (4 knots; 2.1 m/s)
Visibility: 10 or more miles (16+ km)
Ceiling: 4300 feet AGL
Clouds: overcast cloud deck at 4300 feet AGL
Present Weather: automated observation with no human augmentation;
there may or may not be significant weather present at this time
KCTY 181855Z AUTO 33004KT 10SM OVC043 25/14 A3014 RMK AO2 T02460136

Conditions at: KCTY observed 18 November 2018  18:35 UTC
Temperature: 24.5°C (76°F)
Dewpoint: 14.2°C (58°F) [RH = 53%]
Pressure (altimeter): 30.15 inches Hg (1021.1 mb)
Winds: from the ENE (60 degrees) at 5 MPH (4 knots; 2.1 m/s)
Visibility: 10 or more miles (16+ km)
Ceiling: 3900 feet AGL
Clouds: broken clouds at 3900 feet AGL
overcast cloud deck at 4900 feet AGL
Present Weather: automated observation with no human augmentation;
there may or may not be significant weather present at this time
KCTY 181835Z AUTO 06004KT 10SM BKN039 OVC049 24/14 A3015 RMK AO2 T02450142

Conditions at: KCTY observed 18 November 2018  18:15 UTC
Temperature: 24.1°C (75°F)
Dewpoint: 14.3°C (58°F) [RH = 54%]
Pressure (altimeter): 30.16 inches Hg (1021.4 mb)
Winds: from the WNW (290 degrees) at 5 MPH (4 knots; 2.1 m/s)
Visibility: 10 or more miles (16+ km)
Ceiling: 3900 feet AGL
Clouds: broken clouds at 3900 feet AGL
Present Weather: automated observation with no human augmentation;
there may or may not be significant weather present at this time
KCTY 181815Z AUTO 29004KT 10SM BKN039 24/14 A3016 RMK AO2 T02410143

Conditions at: KCTY observed 18 November 2018  17:55 UTC
Temperature: 23.6°C (74°F)
Dewpoint: 14.1°C (57°F) [RH = 55%]
Pressure (altimeter): 30.17 inches Hg (1021.8 mb)
Winds: calm
Visibility: 10 or more miles (16+ km)
Ceiling: at least 12,000 feet AGL
Clouds: scattered clouds at 3800 feet AGL
Present Weather: automated observation with no human augmentation;
there may or may not be significant weather present at this time
KCTY 181755Z AUTO 00000KT 10SM SCT038 24/14 A3017 RMK AO2 T02360141 10248 20065

Conditions at: KCTY observed 18 November 2018  17:35 UTC
Temperature: 23.2°C (74°F)
Dewpoint: 14.3°C (58°F) [RH = 57%]
Pressure (altimeter): 30.18 inches Hg (1022.1 mb)
Winds: calm
Visibility: 10 or more miles (16+ km)
Ceiling: at least 12,000 feet AGL
Clouds: sky clear below 12,000 feet AGL
Present Weather: automated observation with no human augmentation;
there may or may not be significant weather present at this time
KCTY 181735Z AUTO 00000KT 10SM CLR 23/14 A3018 RMK AO2 T02320143

Conditions at: KCTY observed 18 November 2018  17:15 UTC
Temperature: 23.8°C (75°F)
Dewpoint: 14.1°C (57°F) [RH = 55%]
Pressure (altimeter): 30.19 inches Hg (1022.4 mb)
Winds: from the E (80 degrees) at 5 MPH (4 knots; 2.1 m/s)
Visibility: 10 or more miles (16+ km)
Ceiling: at least 12,000 feet AGL
Clouds: sky clear below 12,000 feet AGL
Present Weather: automated observation with no human augmentation;
there may or may not be significant weather present at this time
KCTY 181715Z AUTO 08004KT 10SM CLR 24/14 A3019 RMK AO2 T02380141

Conditions at: KCTY observed 18 November 2018  16:55 UTC
Temperature: 22.5°C (72°F)
Dewpoint: 14.2°C (58°F) [RH = 59%]
Pressure (altimeter): 30.20 inches Hg (1022.8 mb)
Winds: calm
Visibility: 10 or more miles (16+ km)
Ceiling: at least 12,000 feet AGL
Clouds: sky clear below 12,000 feet AGL
Present Weather: automated observation with no human augmentation;
there may or may not be significant weather present at this time
KCTY 181655Z AUTO 00000KT 10SM CLR 23/14 A3020 RMK AO2 T02250142

Conditions at: KCTY observed 18 November 2018  16:35 UTC
Temperature: 22.8°C (73°F)
Dewpoint: 14.8°C (59°F) [RH = 61%]
Pressure (altimeter): 30.21 inches Hg (1023.1 mb)
Winds: from the NNE (20 degrees) at 5 MPH (4 knots; 2.1 m/s)
Visibility: 10 or more miles (16+ km)
Ceiling: at least 12,000 feet AGL
Clouds: sky clear below 12,000 feet AGL
Present Weather: automated observation with no human augmentation;
there may or may not be significant weather present at this time
KCTY 181635Z AUTO 02004KT 10SM CLR 23/15 A3021 RMK AO2 T02280148

Conditions at: KCTY observed 18 November 2018  16:15 UTC
Temperature: 22.3°C (72°F)
Dewpoint: 14.8°C (59°F) [RH = 63%]
Pressure (altimeter): 30.22 inches Hg (1023.5 mb)
Winds: from the ENE (70 degrees) at 6 MPH (5 knots; 2.6 m/s)
Visibility: 10 or more miles (16+ km)
Ceiling: at least 12,000 feet AGL
Clouds: scattered clouds at 5000 feet AGL
Present Weather: automated observation with no human augmentation;
there may or may not be significant weather present at this time
KCTY 181615Z AUTO 07005KT 10SM SCT050 22/15 A3022 RMK AO2 T02230148

Conditions at: KCTY observed 18 November 2018  15:55 UTC
Temperature: 21.3°C (70°F)
Dewpoint: 14.8°C (59°F) [RH = 66%]
Pressure (altimeter): 30.22 inches Hg (1023.5 mb)
Winds: from the NNE (30 degrees) at 7 MPH (6 knots; 3.1 m/s)
Visibility: 10 or more miles (16+ km)
Ceiling: at least 12,000 feet AGL
Clouds: scattered clouds at 5000 feet AGL
Present Weather: automated observation with no human augmentation;
there may or may not be significant weather present at this time
KCTY 181555Z AUTO 03006KT 10SM SCT050 21/15 A3022 RMK AO2 T02130148

Conditions at: KCTY observed 18 November 2018  15:35 UTC
Temperature: 20.9°C (70°F)
Dewpoint: 14.7°C (58°F) [RH = 68%]
Pressure (altimeter): 30.22 inches Hg (1023.5 mb)
Winds: from the E (80 degrees) at 6 MPH (5 knots; 2.6 m/s)
Visibility: 10 or more miles (16+ km)
Ceiling: at least 12,000 feet AGL
Clouds: scattered clouds at 4800 feet AGL
Present Weather: automated observation with no human augmentation;
there may or may not be significant weather present at this time
KCTY 181535Z AUTO 08005KT 10SM SCT048 21/15 A3022 RMK AO2 T02090147

Conditions at: KCTY observed 18 November 2018  15:15 UTC
Temperature: 19.8°C (68°F)
Dewpoint: 14.3°C (58°F) [RH = 71%]
Pressure (altimeter): 30.22 inches Hg (1023.5 mb)
Winds: from the NE (40 degrees) at 6 MPH (5 knots; 2.6 m/s)
Visibility: missing
Ceiling: at least 12,000 feet AGL
Clouds: scattered clouds at 4800 feet AGL
Present Weather: automated observation with no human augmentation;
there may or may not be significant weather present at this time
KCTY 181515Z AUTO 04005KT SCT048 20/14 A3022 RMK AO2 T01980143

Conditions at: KCTY observed 18 November 2018  14:55 UTC
Temperature: 19.2°C (67°F)
Dewpoint: 14.1°C (57°F) [RH = 72%]
Pressure (altimeter): 30.23 inches Hg (1023.8 mb)
Winds: from the NE (50 degrees) at 6 MPH (5 knots; 2.6 m/s)
Visibility: 10 or more miles (16+ km)
Ceiling: at least 12,000 feet AGL
Clouds: sky clear below 12,000 feet AGL
Present Weather: automated observation with no human augmentation;
there may or may not be significant weather present at this time
KCTY 181455Z AUTO 05005KT 10SM CLR 19/14 A3023 RMK AO2 T01920141

Conditions at: KCTY observed 18 November 2018  14:35 UTC
Temperature: 18.0°C (64°F)
Dewpoint: 13.8°C (57°F) [RH = 76%]
Pressure (altimeter): 30.22 inches Hg (1023.5 mb)
Winds: from the NNE (30 degrees) at 7 MPH (6 knots; 3.1 m/s)
Visibility: 10 or more miles (16+ km)
Ceiling: at least 12,000 feet AGL
Clouds: sky clear below 12,000 feet AGL
Present Weather: automated observation with no human augmentation;
there may or may not be significant weather present at this time
KCTY 181435Z AUTO 03006KT 10SM CLR 18/14 A3022 RMK AO2 T01800138

Conditions at: KCTY observed 18 November 2018  14:15 UTC
Temperature: 16.6°C (62°F)
Dewpoint: 13.3°C (56°F) [RH = 81%]
Pressure (altimeter): 30.22 inches Hg (1023.5 mb)
Winds: from the NE (40 degrees) at 5 MPH (4 knots; 2.1 m/s)
Visibility: 10 or more miles (16+ km)
Ceiling: at least 12,000 feet AGL
Clouds: sky clear below 12,000 feet AGL
Present Weather: automated observation with no human augmentation;
there may or may not be significant weather present at this time
KCTY 181415Z AUTO 04004KT 10SM CLR 17/13 A3022 RMK AO2 T01660133

Conditions at: KCTY observed 18 November 2018  13:55 UTC
Temperature: 15.0°C (59°F)
Dewpoint: 12.8°C (55°F) [RH = 87%]
Pressure (altimeter): 30.21 inches Hg (1023.1 mb)
Winds: from the NE (40 degrees) at 6 MPH (5 knots; 2.6 m/s)
Visibility: 10 or more miles (16+ km)
Ceiling: at least 12,000 feet AGL
Clouds: sky clear below 12,000 feet AGL
Present Weather: automated observation with no human augmentation;
there may or may not be significant weather present at this time
KCTY 181355Z AUTO 04005KT 10SM CLR 15/13 A3021 RMK AO2 T01500128

Conditions at: KCTY observed 18 November 2018  13:35 UTC
Temperature: 13.6°C (56°F)
Dewpoint: 12.3°C (54°F) [RH = 92%]
Pressure (altimeter): 30.22 inches Hg (1023.5 mb)
Winds: from the NE (40 degrees) at 7 MPH (6 knots; 3.1 m/s)
Visibility: 10 or more miles (16+ km)
Ceiling: at least 12,000 feet AGL
Clouds: sky clear below 12,000 feet AGL
Present Weather: automated observation with no human augmentation;
there may or may not be significant weather present at this time
KCTY 181335Z AUTO 04006KT 10SM CLR 14/12 A3022 RMK AO2 T01360123

Conditions at: KCTY observed 18 November 2018  13:15 UTC
Temperature: 12.1°C (54°F)
Dewpoint: 11.5°C (53°F) [RH = 96%]
Pressure (altimeter): 30.21 inches Hg (1023.1 mb)
Winds: from the NNE (30 degrees) at 6 MPH (5 knots; 2.6 m/s)
Visibility: 10 or more miles (16+ km)
Ceiling: at least 12,000 feet AGL
Clouds: sky clear below 12,000 feet AGL
Present Weather: automated observation with no human augmentation;
there may or may not be significant weather present at this time
KCTY 181315Z AUTO 03005KT 10SM CLR 12/11 A3021 RMK AO2 T01210115

Conditions at: KCTY observed 18 November 2018  12:55 UTC
Temperature: 10.6°C (51°F)
Dewpoint: 10.3°C (51°F) [RH = 98%]
Pressure (altimeter): 30.20 inches Hg (1022.8 mb)
Winds: from the NNE (30 degrees) at 3 MPH (3 knots; 1.6 m/s)
Visibility: 7 miles (11 km)
Ceiling: at least 12,000 feet AGL
Clouds: sky clear below 12,000 feet AGL
Present Weather: automated observation with no human augmentation;
there may or may not be significant weather present at this time
KCTY 181255Z AUTO 03003KT 7SM CLR 11/10 A3020 RMK AO2 T01060103

Conditions at: KCTY observed 18 November 2018  12:35 UTC
Temperature: 8.4°C (47°F)
Dewpoint: 8.1°C (47°F) [RH = 98%]
Pressure (altimeter): 30.20 inches Hg (1022.8 mb)
Winds: from the NE (40 degrees) at 3 MPH (3 knots; 1.6 m/s)
Visibility: 10 or more miles (16+ km)
Ceiling: at least 12,000 feet AGL
Clouds: sky clear below 12,000 feet AGL
Present Weather: automated observation with no human augmentation;
there may or may not be significant weather present at this time
KCTY 181235Z AUTO 04003KT 10SM CLR 08/08 A3020 RMK AO2 T00840081

Conditions at: KCTY observed 18 November 2018  12:15 UTC
Temperature: 7.0°C (45°F)
Dewpoint: 6.3°C (43°F) [RH = 95%]
Pressure (altimeter): 30.19 inches Hg (1022.4 mb)
Winds: from the NNE (30 degrees) at 3 MPH (3 knots; 1.6 m/s)
Visibility: 10 or more miles (16+ km)
Ceiling: at least 12,000 feet AGL
Clouds: sky clear below 12,000 feet AGL
Present Weather: automated observation with no human augmentation;
there may or may not be significant weather present at this time
KCTY 181215Z AUTO 03003KT 10SM CLR 07/06 A3019 RMK AO2 T00700063

Conditions at: KCTY observed 18 November 2018  11:55 UTC
Temperature: 6.5°C (44°F)
Dewpoint: 5.9°C (43°F) [RH = 96%]
Pressure (altimeter): 30.20 inches Hg (1022.8 mb)
Winds: from the NNE (20 degrees) at 3 MPH (3 knots; 1.6 m/s)
Visibility: 1.00 miles (1.61 km)
Ceiling: indefinite ceiling with vertical visibility of 700 feet AGL
Clouds: obscured sky
Present Weather: BR  (mist)
KCTY 181155Z AUTO 02003KT 1SM BR VV007 06/06 A3020 RMK AO2 VIS 1/4V5 T00650059 10076 20057

Conditions at: KCTY observed 18 November 2018  11:35 UTC
Temperature: 6.8°C (44°F)
Dewpoint: 6.6°C (44°F) [RH = 99%]
Pressure (altimeter): 30.19 inches Hg (1022.4 mb)
Winds: from the NNE (30 degrees) at 3 MPH (3 knots; 1.6 m/s)
Visibility: 7 miles (11 km)
Ceiling: at least 12,000 feet AGL
Clouds: sky clear below 12,000 feet AGL
Present Weather: automated observation with no human augmentation;
there may or may not be significant weather present at this time
KCTY 181135Z AUTO 03003KT 7SM CLR 07/07 A3019 RMK AO2 T00680066

Conditions at: KCTY observed 18 November 2018  11:15 UTC
Temperature: 6.7°C (44°F)
Dewpoint: 6.1°C (43°F) [RH = 96%]
Pressure (altimeter): 30.19 inches Hg (1022.4 mb)
Winds: from the NE (40 degrees) at 3 MPH (3 knots; 1.6 m/s)
Visibility: 7 miles (11 km)
Ceiling: at least 12,000 feet AGL
Clouds: sky clear below 12,000 feet AGL
Present Weather: automated observation with no human augmentation;
there may or may not be significant weather present at this time
KCTY 181115Z AUTO 04003KT 7SM CLR 07/06 A3019 RMK AO2 T00670061

Conditions at: KCTY observed 18 November 2018  10:55 UTC
Temperature: 6.6°C (44°F)
Dewpoint: 6.0°C (43°F) [RH = 96%]
Pressure (altimeter): 30.18 inches Hg (1022.1 mb)
Winds: from the NE (40 degrees) at 3 MPH (3 knots; 1.6 m/s)
Visibility: 10 or more miles (16+ km)
Ceiling: at least 12,000 feet AGL
Clouds: sky clear below 12,000 feet AGL
Present Weather: automated observation with no human augmentation;
there may or may not be significant weather present at this time
KCTY 181055Z AUTO 04003KT 10SM CLR 07/06 A3018 RMK AO2 T00660060

Conditions at: KCTY observed 18 November 2018  10:35 UTC
Temperature: 7.2°C (45°F)
Dewpoint: 6.7°C (44°F) [RH = 97%]
Pressure (altimeter): 30.18 inches Hg (1022.1 mb)
Winds: from the NNE (20 degrees) at 3 MPH (3 knots; 1.6 m/s)
Visibility: 10 or more miles (16+ km)
Ceiling: at least 12,000 feet AGL
Clouds: sky clear below 12,000 feet AGL
Present Weather: automated observation with no human augmentation;
there may or may not be significant weather present at this time
KCTY 181035Z AUTO 02003KT 10SM CLR 07/07 A3018 RMK AO2 T00720067

Conditions at: KCTY observed 18 November 2018  10:15 UTC
Temperature: 6.6°C (44°F)
Dewpoint: 6.0°C (43°F) [RH = 96%]
Pressure (altimeter): 30.17 inches Hg (1021.8 mb)
Winds: from the NNE (30 degrees) at 3 MPH (3 knots; 1.6 m/s)
Visibility: 10 or more miles (16+ km)
Ceiling: at least 12,000 feet AGL
Clouds: sky clear below 12,000 feet AGL
Present Weather: automated observation with no human augmentation;
there may or may not be significant weather present at this time
KCTY 181015Z AUTO 03003KT 10SM CLR 07/06 A3017 RMK AO2 T00660060

Conditions at: KCTY observed 18 November 2018  09:55 UTC
Temperature: 6.3°C (43°F)
Dewpoint: 5.9°C (43°F) [RH = 97%]
Pressure (altimeter): 30.16 inches Hg (1021.4 mb)
Winds: from the NNE (20 degrees) at 3 MPH (3 knots; 1.6 m/s)
Visibility: 10 or more miles (16+ km)
Ceiling: at least 12,000 feet AGL
Clouds: sky clear below 12,000 feet AGL
Present Weather: automated observation with no human augmentation;
there may or may not be significant weather present at this time
KCTY 180955Z AUTO 02003KT 10SM CLR 06/06 A3016 RMK AO2 T00630059

Conditions at: KCTY observed 18 November 2018  09:35 UTC
Temperature: 6.5°C (44°F)
Dewpoint: 5.9°C (43°F) [RH = 96%]
Pressure (altimeter): 30.16 inches Hg (1021.4 mb)
Winds: from the NE (40 degrees) at 3 MPH (3 knots; 1.6 m/s)
Visibility: 10 or more miles (16+ km)
Ceiling: at least 12,000 feet AGL
Clouds: sky clear below 12,000 feet AGL
Present Weather: automated observation with no human augmentation;
there may or may not be significant weather present at this time
KCTY 180935Z AUTO 04003KT 10SM CLR 07/06 A3016 RMK AO2 T00650059

Conditions at: KCTY observed 18 November 2018  09:15 UTC
Temperature: 6.4°C (44°F)
Dewpoint: 5.7°C (42°F) [RH = 95%]
Pressure (altimeter): 30.16 inches Hg (1021.4 mb)
Winds: from the NE (40 degrees) at 3 MPH (3 knots; 1.6 m/s)
Visibility: 10 or more miles (16+ km)
Ceiling: at least 12,000 feet AGL
Clouds: sky clear below 12,000 feet AGL
Present Weather: automated observation with no human augmentation;
there may or may not be significant weather present at this time
KCTY 180915Z AUTO 04003KT 10SM CLR 06/06 A3016 RMK AO2 T00640057

Conditions at: KCTY observed 18 November 2018  08:55 UTC
Temperature: 6.6°C (44°F)
Dewpoint: 5.9°C (43°F) [RH = 95%]
Pressure (altimeter): 30.16 inches Hg (1021.4 mb)
Winds: calm
Visibility: 10 or more miles (16+ km)
Ceiling: at least 12,000 feet AGL
Clouds: sky clear below 12,000 feet AGL
Present Weather: automated observation with no human augmentation;
there may or may not be significant weather present at this time
KCTY 180855Z AUTO 00000KT 10SM CLR 07/06 A3016 RMK AO2 T00660059

Conditions at: KCTY observed 18 November 2018  08:35 UTC
Temperature: 6.3°C (43°F)
Dewpoint: 5.5°C (42°F) [RH = 95%]
Pressure (altimeter): 30.16 inches Hg (1021.4 mb)
Winds: from the NNE (20 degrees) at 3 MPH (3 knots; 1.6 m/s)
Visibility: 10 or more miles (16+ km)
Ceiling: at least 12,000 feet AGL
Clouds: sky clear below 12,000 feet AGL
Present Weather: automated observation with no human augmentation;
there may or may not be significant weather present at this time
KCTY 180835Z AUTO 02003KT 10SM CLR 06/05 A3016 RMK AO2 T00630055

Conditions at: KCTY observed 18 November 2018  08:15 UTC
Temperature: 6.3°C (43°F)
Dewpoint: 5.6°C (42°F) [RH = 95%]
Pressure (altimeter): 30.17 inches Hg (1021.8 mb)
Winds: calm
Visibility: 10 or more miles (16+ km)
Ceiling: at least 12,000 feet AGL
Clouds: sky clear below 12,000 feet AGL
Present Weather: automated observation with no human augmentation;
there may or may not be significant weather present at this time
KCTY 180815Z AUTO 00000KT 10SM CLR 06/06 A3017 RMK AO2 T00630056

Conditions at: KCTY observed 18 November 2018  07:55 UTC
Temperature: 6.3°C (43°F)
Dewpoint: 5.7°C (42°F) [RH = 96%]
Pressure (altimeter): 30.16 inches Hg (1021.4 mb)
Winds: from the NNE (30 degrees) at 3 MPH (3 knots; 1.6 m/s)
Visibility: 10 or more miles (16+ km)
Ceiling: at least 12,000 feet AGL
Clouds: sky clear below 12,000 feet AGL
Present Weather: automated observation with no human augmentation;
there may or may not be significant weather present at this time
KCTY 180755Z AUTO 03003KT 10SM CLR 06/06 A3016 RMK AO2 T00630057

Conditions at: KCTY observed 18 November 2018  07:35 UTC
Temperature: 6.5°C (44°F)
Dewpoint: 6.0°C (43°F) [RH = 97%]
Pressure (altimeter): 30.16 inches Hg (1021.4 mb)
Winds: from the NE (40 degrees) at 3 MPH (3 knots; 1.6 m/s)
Visibility: 10 or more miles (16+ km)
Ceiling: at least 12,000 feet AGL
Clouds: sky clear below 12,000 feet AGL
Present Weather: automated observation with no human augmentation;
there may or may not be significant weather present at this time
KCTY 180735Z AUTO 04003KT 10SM CLR 06/06 A3016 RMK AO2 T00650060

Conditions at: KCTY observed 18 November 2018  07:15 UTC
Temperature: 6.4°C (44°F)
Dewpoint: 5.7°C (42°F) [RH = 95%]
Pressure (altimeter): 30.17 inches Hg (1021.8 mb)
Winds: from the NNE (30 degrees) at 3 MPH (3 knots; 1.6 m/s)
Visibility: 10 or more miles (16+ km)
Ceiling: at least 12,000 feet AGL
Clouds: sky clear below 12,000 feet AGL
Present Weather: automated observation with no human augmentation;
there may or may not be significant weather present at this time
KCTY 180715Z AUTO 03003KT 10SM CLR 06/06 A3017 RMK AO2 T00640057

Conditions at: KCTY observed 18 November 2018  06:55 UTC
Temperature: 6.7°C (44°F)
Dewpoint: 6.1°C (43°F) [RH = 96%]
Pressure (altimeter): 30.17 inches Hg (1021.8 mb)
Winds: calm
Visibility: 10 or more miles (16+ km)
Ceiling: at least 12,000 feet AGL
Clouds: sky clear below 12,000 feet AGL
Present Weather: automated observation with no human augmentation;
there may or may not be significant weather present at this time
KCTY 180655Z AUTO 00000KT 10SM CLR 07/06 A3017 RMK AO2 T00670061

Conditions at: KCTY observed 18 November 2018  06:35 UTC
Temperature: 6.5°C (44°F)
Dewpoint: 5.7°C (42°F) [RH = 95%]
Pressure (altimeter): 30.17 inches Hg (1021.8 mb)
Winds: calm
Visibility: 10 or more miles (16+ km)
Ceiling: at least 12,000 feet AGL
Clouds: sky clear below 12,000 feet AGL
Present Weather: automated observation with no human augmentation;
there may or may not be significant weather present at this time
KCTY 180635Z AUTO 00000KT 10SM CLR 06/06 A3017 RMK AO2 T00650057

Conditions at: KCTY observed 18 November 2018  06:15 UTC
Temperature: 6.7°C (44°F)
Dewpoint: 5.9°C (43°F) [RH = 95%]
Pressure (altimeter): 30.18 inches Hg (1022.1 mb)
Winds: calm
Visibility: 10 or more miles (16+ km)
Ceiling: at least 12,000 feet AGL
Clouds: sky clear below 12,000 feet AGL
Present Weather: automated observation with no human augmentation;
there may or may not be significant weather present at this time
KCTY 180615Z AUTO 00000KT 10SM CLR 07/06 A3018 RMK AO2 T00670059

Conditions at: KCTY observed 18 November 2018  05:55 UTC
Temperature: 7.0°C (45°F)
Dewpoint: 6.0°C (43°F) [RH = 93%]
Pressure (altimeter): 30.18 inches Hg (1022.1 mb)
Winds: calm
Visibility: 10 or more miles (16+ km)
Ceiling: at least 12,000 feet AGL
Clouds: sky clear below 12,000 feet AGL
Present Weather: automated observation with no human augmentation;
there may or may not be significant weather present at this time
KCTY 180555Z AUTO 00000KT 10SM CLR 07/06 A3018 RMK AO2 10115 20068

Conditions at: KCTY observed 18 November 2018  05:35 UTC
Temperature: 7.1°C (45°F)
Dewpoint: 6.3°C (43°F) [RH = 95%]
Pressure (altimeter): 30.18 inches Hg (1022.1 mb)
Winds: from the NNE (30 degrees) at 3 MPH (3 knots; 1.6 m/s)
Visibility: 10 or more miles (16+ km)
Ceiling: at least 12,000 feet AGL
Clouds: sky clear below 12,000 feet AGL
Present Weather: automated observation with no human augmentation;
there may or may not be significant weather present at this time
KCTY 180535Z AUTO 03003KT 10SM CLR 07/06 A3018 RMK AO2 T00710063

Conditions at: KCTY observed 18 November 2018  05:15 UTC
Temperature: 7.0°C (45°F)
Dewpoint: 6.2°C (43°F) [RH = 95%]
Pressure (altimeter): 30.18 inches Hg (1022.1 mb)
Winds: calm
Visibility: 10 or more miles (16+ km)
Ceiling: at least 12,000 feet AGL
Clouds: sky clear below 12,000 feet AGL
Present Weather: automated observation with no human augmentation;
there may or may not be significant weather present at this time
KCTY 180515Z AUTO 00000KT 10SM CLR 07/06 A3018 RMK AO2 T00700062

Conditions at: KCTY observed 18 November 2018  04:55 UTC
Temperature: 7.2°C (45°F)
Dewpoint: 6.3°C (43°F) [RH = 94%]
Pressure (altimeter): 30.19 inches Hg (1022.4 mb)
Winds: from the NE (40 degrees) at 3 MPH (3 knots; 1.6 m/s)
Visibility: 10 or more miles (16+ km)
Ceiling: at least 12,000 feet AGL
Clouds: sky clear below 12,000 feet AGL
Present Weather: automated observation with no human augmentation;
there may or may not be significant weather present at this time
KCTY 180455Z AUTO 04003KT 10SM CLR 07/06 A3019 RMK AO2 T00720063

Conditions at: KCTY observed 18 November 2018  04:35 UTC
Temperature: 7.0°C (45°F)
Dewpoint: 6.1°C (43°F) [RH = 94%]
Pressure (altimeter): 30.19 inches Hg (1022.4 mb)
Winds: calm
Visibility: 10 or more miles (16+ km)
Ceiling: at least 12,000 feet AGL
Clouds: sky clear below 12,000 feet AGL
Present Weather: automated observation with no human augmentation;
there may or may not be significant weather present at this time
KCTY 180435Z AUTO 00000KT 10SM CLR 07/06 A3019 RMK AO2 T00700061

Conditions at: KCTY observed 18 November 2018  04:15 UTC
Temperature: 7.6°C (46°F)
Dewpoint: 6.6°C (44°F) [RH = 93%]
Pressure (altimeter): 30.19 inches Hg (1022.4 mb)
Winds: calm
Visibility: 10 or more miles (16+ km)
Ceiling: at least 12,000 feet AGL
Clouds: sky clear below 12,000 feet AGL
Present Weather: automated observation with no human augmentation;
there may or may not be significant weather present at this time
KCTY 180415Z AUTO 00000KT 10SM CLR 08/07 A3019 RMK AO2 T00760066

Conditions at: KCTY observed 18 November 2018  03:55 UTC
Temperature: 7.5°C (46°F)
Dewpoint: 6.4°C (44°F) [RH = 93%]
Pressure (altimeter): 30.19 inches Hg (1022.4 mb)
Winds: calm
Visibility: 10 or more miles (16+ km)
Ceiling: at least 12,000 feet AGL
Clouds: sky clear below 12,000 feet AGL
Present Weather: automated observation with no human augmentation;
there may or may not be significant weather present at this time
KCTY 180355Z AUTO 00000KT 10SM CLR 07/06 A3019 RMK AO2 T00750064

Conditions at: KCTY observed 18 November 2018  03:35 UTC
Temperature: 7.8°C (46°F)
Dewpoint: 6.8°C (44°F) [RH = 93%]
Pressure (altimeter): 30.18 inches Hg (1022.1 mb)
Winds: from the NNE (30 degrees) at 3 MPH (3 knots; 1.6 m/s)
Visibility: 10 or more miles (16+ km)
Ceiling: at least 12,000 feet AGL
Clouds: sky clear below 12,000 feet AGL
Present Weather: automated observation with no human augmentation;
there may or may not be significant weather present at this time
KCTY 180335Z AUTO 03003KT 10SM CLR 08/07 A3018 RMK AO2 T00780068

Conditions at: KCTY observed 18 November 2018  03:15 UTC
Temperature: 7.7°C (46°F)
Dewpoint: 6.6°C (44°F) [RH = 93%]
Pressure (altimeter): 30.19 inches Hg (1022.4 mb)
Winds: calm
Visibility: 10 or more miles (16+ km)
Ceiling: at least 12,000 feet AGL
Clouds: sky clear below 12,000 feet AGL
Present Weather: automated observation with no human augmentation;
there may or may not be significant weather present at this time
KCTY 180315Z AUTO 00000KT 10SM CLR 08/07 A3019 RMK AO2 T00770066

Conditions at: KCTY observed 18 November 2018  02:55 UTC
Temperature: 7.8°C (46°F)
Dewpoint: 6.7°C (44°F) [RH = 93%]
Pressure (altimeter): 30.19 inches Hg (1022.4 mb)
Winds: calm
Visibility: 10 or more miles (16+ km)
Ceiling: at least 12,000 feet AGL
Clouds: sky clear below 12,000 feet AGL
Present Weather: automated observation with no human augmentation;
there may or may not be significant weather present at this time
KCTY 180255Z AUTO 00000KT 10SM CLR 08/07 A3019 RMK AO2 T00780067

Conditions at: KCTY observed 18 November 2018  02:35 UTC
Temperature: 8.3°C (47°F)
Dewpoint: 7.1°C (45°F) [RH = 92%]
Pressure (altimeter): 30.19 inches Hg (1022.4 mb)
Winds: calm
Visibility: 10 or more miles (16+ km)
Ceiling: at least 12,000 feet AGL
Clouds: sky clear below 12,000 feet AGL
Present Weather: automated observation with no human augmentation;
there may or may not be significant weather present at this time
KCTY 180235Z AUTO 00000KT 10SM CLR 08/07 A3019 RMK AO2 T00830071

Conditions at: KCTY observed 18 November 2018  02:15 UTC
Temperature: 8.3°C (47°F)
Dewpoint: 7.1°C (45°F) [RH = 92%]
Pressure (altimeter): 30.19 inches Hg (1022.4 mb)
Winds: calm
Visibility: 10 or more miles (16+ km)
Ceiling: at least 12,000 feet AGL
Clouds: sky clear below 12,000 feet AGL
Present Weather: automated observation with no human augmentation;
there may or may not be significant weather present at this time
KCTY 180215Z AUTO 00000KT 10SM CLR 08/07 A3019 RMK AO2 T00830071

Conditions at: KCTY observed 18 November 2018  01:55 UTC
Temperature: 9.4°C (49°F)
Dewpoint: 8.0°C (46°F) [RH = 91%]
Pressure (altimeter): 30.18 inches Hg (1022.1 mb)
Winds: calm
Visibility: 10 or more miles (16+ km)
Ceiling: at least 12,000 feet AGL
Clouds: sky clear below 12,000 feet AGL
Present Weather: automated observation with no human augmentation;
there may or may not be significant weather present at this time
KCTY 180155Z AUTO 00000KT 10SM CLR 09/08 A3018 RMK AO2 T00940080

Conditions at: KCTY observed 18 November 2018  01:35 UTC
Temperature: 10.0°C (50°F)
Dewpoint: 8.2°C (47°F) [RH = 89%]
Pressure (altimeter): 30.18 inches Hg (1022.1 mb)
Winds: from the NNE (30 degrees) at 3 MPH (3 knots; 1.6 m/s)
Visibility: 10 or more miles (16+ km)
Ceiling: at least 12,000 feet AGL
Clouds: sky clear below 12,000 feet AGL
Present Weather: automated observation with no human augmentation;
there may or may not be significant weather present at this time
KCTY 180135Z AUTO 03003KT 10SM CLR 10/08 A3018 RMK AO2 T01000082

Conditions at: KCTY observed 18 November 2018  01:15 UTC
Temperature: 10.3°C (51°F)
Dewpoint: 8.0°C (46°F) [RH = 86%]
Pressure (altimeter): 30.19 inches Hg (1022.4 mb)
Winds: from the N (360 degrees) at 3 MPH (3 knots; 1.6 m/s)
Visibility: 10 or more miles (16+ km)
Ceiling: at least 12,000 feet AGL
Clouds: sky clear below 12,000 feet AGL
Present Weather: automated observation with no human augmentation;
there may or may not be significant weather present at this time
KCTY 180115Z AUTO 36003KT 10SM CLR 10/08 A3019 RMK AO2 T01030080

Conditions at: KCTY observed 18 November 2018  00:55 UTC
Temperature: 11.4°C (53°F)
Dewpoint: 8.6°C (47°F) [RH = 83%]
Pressure (altimeter): 30.18 inches Hg (1022.1 mb)
Winds: from the N (10 degrees) at 5 MPH (4 knots; 2.1 m/s)
Visibility: 10 or more miles (16+ km)
Ceiling: at least 12,000 feet AGL
Clouds: sky clear below 12,000 feet AGL
Present Weather: automated observation with no human augmentation;
there may or may not be significant weather present at this time
KCTY 180055Z AUTO 01004KT 10SM CLR 11/09 A3018 RMK AO2 T01140086

Conditions at: KCTY observed 18 November 2018  00:35 UTC
Temperature: 10.4°C (51°F)
Dewpoint: 8.7°C (48°F) [RH = 89%]
Pressure (altimeter): 30.18 inches Hg (1022.1 mb)
Winds: from the N (10 degrees) at 5 MPH (4 knots; 2.1 m/s)
Visibility: 10 or more miles (16+ km)
Ceiling: at least 12,000 feet AGL
Clouds: sky clear below 12,000 feet AGL
Present Weather: automated observation with no human augmentation;
there may or may not be significant weather present at this time
KCTY 180035Z AUTO 01004KT 10SM CLR 10/09 A3018 RMK AO2 T01040087

Conditions at: KCTY observed 18 November 2018  00:15 UTC
Temperature: 10.7°C (51°F)
Dewpoint: 8.8°C (48°F) [RH = 88%]
Pressure (altimeter): 30.18 inches Hg (1022.1 mb)
Winds: calm
Visibility: 10 or more miles (16+ km)
Ceiling: at least 12,000 feet AGL
Clouds: sky clear below 12,000 feet AGL
Present Weather: automated observation with no human augmentation;
there may or may not be significant weather present at this time
KCTY 180015Z AUTO 00000KT 10SM CLR 11/09 A3018 RMK AO2 T01070088

Conditions at: KCTY observed 17 November 2018  23:50 UTC
Temperature: 11.3°C (52°F)
Dewpoint: 9.1°C (48°F) [RH = 86%]
Pressure (altimeter): 30.18 inches Hg (1022.1 mb)
Winds: calm
Visibility: 10 or more miles (16+ km)
Ceiling: at least 12,000 feet AGL
Clouds: sky clear below 12,000 feet AGL
Present Weather: automated observation with no human augmentation;
there may or may not be significant weather present at this time
KCTY 172350Z AUTO 00000KT 10SM CLR 11/09 A3018 RMK AO2 T01130091 10208 20111 402080007

Conditions at: KCTY observed 17 November 2018  23:35 UTC
Temperature: 11.7°C (53°F)
Dewpoint: 9.2°C (49°F) [RH = 85%]
Pressure (altimeter): 30.17 inches Hg (1021.8 mb)
Winds: calm
Visibility: 10 or more miles (16+ km)
Ceiling: at least 12,000 feet AGL
Clouds: sky clear below 12,000 feet AGL
Present Weather: automated observation with no human augmentation;
there may or may not be significant weather present at this time
KCTY 172335Z AUTO 00000KT 10SM CLR 12/09 A3017 RMK AO2 T01170092

Conditions at: KCTY observed 17 November 2018  23:15 UTC
Temperature: 12.2°C (54°F)
Dewpoint: 9.6°C (49°F) [RH = 84%]
Pressure (altimeter): 30.17 inches Hg (1021.8 mb)
Winds: calm
Visibility: 10 or more miles (16+ km)
Ceiling: at least 12,000 feet AGL
Clouds: sky clear below 12,000 feet AGL
Present Weather: automated observation with no human augmentation;
there may or may not be significant weather present at this time
KCTY 172315Z AUTO 00000KT 10SM CLR 12/10 A3017 RMK AO2 T01220096

Conditions at: KCTY observed 17 November 2018  22:55 UTC
Temperature: 13.4°C (56°F)
Dewpoint: 9.4°C (49°F) [RH = 77%]
Pressure (altimeter): 30.17 inches Hg (1021.8 mb)
Winds: from the NE (40 degrees) at 3 MPH (3 knots; 1.6 m/s)
Visibility: 10 or more miles (16+ km)
Ceiling: at least 12,000 feet AGL
Clouds: sky clear below 12,000 feet AGL
Present Weather: automated observation with no human augmentation;
there may or may not be significant weather present at this time
KCTY 172255Z AUTO 04003KT 10SM CLR 13/09 A3017 RMK AO2 T01340094

Conditions at: KCTY observed 17 November 2018  22:35 UTC
Temperature: 14.3°C (58°F)
Dewpoint: 10.1°C (50°F) [RH = 76%]
Pressure (altimeter): 30.17 inches Hg (1021.8 mb)
Winds: from the N (350 degrees) at 3 MPH (3 knots; 1.6 m/s)
Visibility: 10 or more miles (16+ km)
Ceiling: at least 12,000 feet AGL
Clouds: sky clear below 12,000 feet AGL
Present Weather: automated observation with no human augmentation;
there may or may not be significant weather present at this time
KCTY 172235Z AUTO 35003KT 10SM CLR 14/10 A3017 RMK AO2 T01430101

Conditions at: KCTY observed 17 November 2018  22:15 UTC
Temperature: 16.3°C (61°F)
Dewpoint: 9.7°C (49°F) [RH = 65%]
Pressure (altimeter): 30.17 inches Hg (1021.8 mb)
Winds: calm
Visibility: 10 or more miles (16+ km)
Ceiling: at least 12,000 feet AGL
Clouds: sky clear below 12,000 feet AGL
Present Weather: automated observation with no human augmentation;
there may or may not be significant weather present at this time
KCTY 172215Z AUTO 00000KT 10SM CLR 16/10 A3017 RMK AO2 T01630097

Conditions at: KCTY observed 17 November 2018  21:55 UTC
Temperature: 18.1°C (65°F)
Dewpoint: 8.0°C (46°F) [RH = 52%]
Pressure (altimeter): 30.17 inches Hg (1021.8 mb)
Winds: from the N (10 degrees) at 5 MPH (4 knots; 2.1 m/s)
Visibility: 10 or more miles (16+ km)
Ceiling: at least 12,000 feet AGL
Clouds: sky clear below 12,000 feet AGL
Present Weather: automated observation with no human augmentation;
there may or may not be significant weather present at this time
KCTY 172155Z AUTO 01004KT 10SM CLR 18/08 A3017 RMK AO2 T01810080

Conditions at: KCTY observed 17 November 2018  21:35 UTC
Temperature: 19.1°C (66°F)
Dewpoint: 6.4°C (44°F) [RH = 43%]
Pressure (altimeter): 30.17 inches Hg (1021.8 mb)
Winds: from the NNE (20 degrees) at 7 MPH (6 knots; 3.1 m/s)
Visibility: 10 or more miles (16+ km)
Ceiling: at least 12,000 feet AGL
Clouds: sky clear below 12,000 feet AGL
Present Weather: automated observation with no human augmentation;
there may or may not be significant weather present at this time
KCTY 172135Z AUTO 02006KT 10SM CLR 19/06 A3017 RMK AO2 T01910064

Conditions at: KCTY observed 17 November 2018  21:15 UTC
Temperature: 19.9°C (68°F)
Dewpoint: 6.3°C (43°F) [RH = 41%]
Pressure (altimeter): 30.17 inches Hg (1021.8 mb)
Winds: from the NNE (20 degrees) at 6 MPH (5 knots; 2.6 m/s)
Visibility: 10 or more miles (16+ km)
Ceiling: at least 12,000 feet AGL
Clouds: sky clear below 12,000 feet AGL
Present Weather: automated observation with no human augmentation;
there may or may not be significant weather present at this time
KCTY 172115Z AUTO 02005KT 10SM CLR 20/06 A3017 RMK AO2 T01990063

Conditions at: KCTY observed 17 November 2018  20:55 UTC
Temperature: 20.2°C (68°F)
Dewpoint: 6.3°C (43°F) [RH = 40%]
Pressure (altimeter): 30.16 inches Hg (1021.4 mb)
Winds: from the NNE (30 degrees) at 6 MPH (5 knots; 2.6 m/s)
Visibility: 10 or more miles (16+ km)
Ceiling: at least 12,000 feet AGL
Clouds: sky clear below 12,000 feet AGL
Present Weather: automated observation with no human augmentation;
there may or may not be significant weather present at this time
KCTY 172055Z AUTO 03005KT 10SM CLR 20/06 A3016 RMK AO2 T02020063

Conditions at: KCTY observed 17 November 2018  20:35 UTC
Temperature: 20.2°C (68°F)
Dewpoint: 6.0°C (43°F) [RH = 40%]
Pressure (altimeter): 30.16 inches Hg (1021.4 mb)
Winds: from the N (360 degrees) at 6 MPH (5 knots; 2.6 m/s)
Visibility: 10 or more miles (16+ km)
Ceiling: at least 12,000 feet AGL
Clouds: sky clear below 12,000 feet AGL
Present Weather: automated observation with no human augmentation;
there may or may not be significant weather present at this time
KCTY 172035Z AUTO 36005KT 10SM CLR 20/06 A3016 RMK AO2 T02020060

Conditions at: KCTY observed 17 November 2018  20:15 UTC
Temperature: 20.3°C (69°F)
Dewpoint: 5.4°C (42°F) [RH = 38%]
Pressure (altimeter): 30.16 inches Hg (1021.4 mb)
Winds: from the NNE (20 degrees) at 8 MPH (7 knots; 3.6 m/s)
Visibility: 10 or more miles (16+ km)
Ceiling: at least 12,000 feet AGL
Clouds: sky clear below 12,000 feet AGL
Present Weather: automated observation with no human augmentation;
there may or may not be significant weather present at this time
KCTY 172015Z AUTO 02007KT 10SM CLR 20/05 A3016 RMK AO2 T02030054

Conditions at: KCTY observed 17 November 2018  19:50 UTC
Temperature: 20.2°C (68°F)
Dewpoint: 5.5°C (42°F) [RH = 38%]
Pressure (altimeter): 30.16 inches Hg (1021.4 mb)
Winds: from the NE (50 degrees) at 5 MPH (4 knots; 2.1 m/s)
Visibility: 10 or more miles (16+ km)
Ceiling: at least 12,000 feet AGL
Clouds: sky clear below 12,000 feet AGL
Present Weather: automated observation with no human augmentation;
there may or may not be significant weather present at this time
KCTY 171950Z AUTO 05004KT 10SM CLR 20/06 A3016 RMK AO2 T02020055

Conditions at: KCTY observed 17 November 2018  19:35 UTC
Temperature: 20.5°C (69°F)
Dewpoint: 5.6°C (42°F) [RH = 38%]
Pressure (altimeter): 30.16 inches Hg (1021.4 mb)
Winds: from the NNE (30 degrees) at 10 MPH (9 knots; 4.7 m/s)
Visibility: 10 or more miles (16+ km)
Ceiling: at least 12,000 feet AGL
Clouds: sky clear below 12,000 feet AGL
Present Weather: automated observation with no human augmentation;
there may or may not be significant weather present at this time
KCTY 171935Z AUTO 03009KT 10SM CLR 20/06 A3016 RMK AO2 T02050056

Conditions at: KCTY observed 17 November 2018  19:15 UTC
Temperature: 20.0°C (68°F)
Dewpoint: 5.4°C (42°F) [RH = 38%]
Pressure (altimeter): 30.16 inches Hg (1021.4 mb)
Winds: from the N (10 degrees) at 5 MPH (4 knots; 2.1 m/s)
Visibility: 10 or more miles (16+ km)
Ceiling: at least 12,000 feet AGL
Clouds: sky clear below 12,000 feet AGL
Present Weather: automated observation with no human augmentation;
there may or may not be significant weather present at this time
KCTY 171915Z AUTO 01004KT 10SM CLR 20/05 A3016 RMK AO2 T02000054

Conditions at: KCTY observed 17 November 2018  18:55 UTC
Temperature: 19.7°C (67°F)
Dewpoint: 5.0°C (41°F) [RH = 38%]
Pressure (altimeter): 30.17 inches Hg (1021.8 mb)
Winds: from the NNE (20 degrees) at 8 MPH (7 knots; 3.6 m/s)
Visibility: 10 or more miles (16+ km)
Ceiling: at least 12,000 feet AGL
Clouds: sky clear below 12,000 feet AGL
Present Weather: automated observation with no human augmentation;
there may or may not be significant weather present at this time
KCTY 171855Z AUTO 02007KT 10SM CLR 20/05 A3017 RMK AO2 T01970050

Conditions at: KCTY observed 17 November 2018  18:35 UTC
Temperature: 19.7°C (67°F)
Dewpoint: 5.3°C (42°F) [RH = 39%]
Pressure (altimeter): 30.17 inches Hg (1021.8 mb)
Winds: from the ENE (60 degrees) at 3 MPH (3 knots; 1.6 m/s)
Visibility: 10 or more miles (16+ km)
Ceiling: at least 12,000 feet AGL
Clouds: sky clear below 12,000 feet AGL
Present Weather: automated observation with no human augmentation;
there may or may not be significant weather present at this time
KCTY 171835Z AUTO 06003KT 10SM CLR 20/05 A3017 RMK AO2 T01970053

Conditions at: KCTY observed 17 November 2018  18:15 UTC
Temperature: 19.0°C (66°F)
Dewpoint: 5.0°C (41°F) [RH = 40%]
Pressure (altimeter): 30.18 inches Hg (1022.1 mb)
Winds: from the E (80 degrees) at 7 MPH (6 knots; 3.1 m/s)
Visibility: 10 or more miles (16+ km)
Ceiling: at least 12,000 feet AGL
Clouds: sky clear below 12,000 feet AGL
Present Weather: automated observation with no human augmentation;
there may or may not be significant weather present at this time
KCTY 171815Z AUTO 08006KT 10SM CLR 19/05 A3018 RMK AO2

Conditions at: KCTY observed 17 November 2018  17:55 UTC
Temperature: 18.4°C (65°F)
Dewpoint: 5.0°C (41°F) [RH = 41%]
Pressure (altimeter): 30.19 inches Hg (1022.4 mb)
Winds: from the NE (50 degrees) at 8 MPH (7 knots; 3.6 m/s)
Visibility: 10 or more miles (16+ km)
Ceiling: at least 12,000 feet AGL
Clouds: sky clear below 12,000 feet AGL
Present Weather: automated observation with no human augmentation;
there may or may not be significant weather present at this time
KCTY 171755Z AUTO 05007KT 10SM CLR 18/05 A3019 RMK AO2 T01840050 10190 20010

Conditions at: KCTY observed 17 November 2018  17:35 UTC
Temperature: 18.6°C (65°F)
Dewpoint: 5.3°C (42°F) [RH = 42%]
Pressure (altimeter): 30.19 inches Hg (1022.4 mb)
Winds: from the NNE (30 degrees) at 9 MPH (8 knots; 4.2 m/s)
Visibility: 10 or more miles (16+ km)
Ceiling: at least 12,000 feet AGL
Clouds: sky clear below 12,000 feet AGL
Present Weather: automated observation with no human augmentation;
there may or may not be significant weather present at this time
KCTY 171735Z AUTO 03008KT 10SM CLR 19/05 A3019 RMK AO2 T01860053

Conditions at: KCTY observed 17 November 2018  17:10 UTC
Temperature: 17.8°C (64°F)
Dewpoint: 6.2°C (43°F) [RH = 47%]
Pressure (altimeter): 30.20 inches Hg (1022.8 mb)
Winds: from the E (80 degrees) at 7 MPH (6 knots; 3.1 m/s)
Visibility: missing
Ceiling: at least 12,000 feet AGL
Clouds: sky clear below 12,000 feet AGL
Present Weather: automated observation with no human augmentation;
there may or may not be significant weather present at this time
KCTY 171710Z AUTO 08006KT CLR 18/06 A3020 RMK AO2 T01780062

Conditions at: KCTY observed 17 November 2018  16:50 UTC
Temperature: 17.6°C (64°F)
Dewpoint: 5.9°C (43°F) [RH = 46%]
Pressure (altimeter): 30.22 inches Hg (1023.5 mb)
Winds: from the E (80 degrees) at 6 MPH (5 knots; 2.6 m/s)
Visibility: 10 or more miles (16+ km)
Ceiling: at least 12,000 feet AGL
Clouds: sky clear below 12,000 feet AGL
Present Weather: automated observation with no human augmentation;
there may or may not be significant weather present at this time
KCTY 171650Z AUTO 08005KT 10SM CLR 18/06 A3022 RMK AO2 T01760059

Conditions at: KCTY observed 17 November 2018  16:35 UTC
Temperature: 17.2°C (63°F)
Dewpoint: 5.7°C (42°F) [RH = 47%]
Pressure (altimeter): 30.23 inches Hg (1023.8 mb)
Winds: from the NE (40 degrees) at 8 MPH (7 knots; 3.6 m/s)
Visibility: 5 miles (8 km)
Ceiling: at least 12,000 feet AGL
Clouds: sky clear below 12,000 feet AGL
Present Weather: HZ  (haze)
KCTY 171635Z AUTO 04007KT 5SM HZ CLR 17/06 A3023 RMK AO2 T01720057

Conditions at: KCTY observed 17 November 2018  16:15 UTC
Temperature: 16.4°C (62°F)
Dewpoint: 5.5°C (42°F) [RH = 48%]
Pressure (altimeter): 30.24 inches Hg (1024.1 mb)
Winds: from the E (80 degrees) at 8 MPH (7 knots; 3.6 m/s)
Visibility: 10 or more miles (16+ km)
Ceiling: at least 12,000 feet AGL
Clouds: sky clear below 12,000 feet AGL
Present Weather: automated observation with no human augmentation;
there may or may not be significant weather present at this time
KCTY 171615Z AUTO 08007KT 10SM CLR 16/05 A3024 RMK AO2 T01640055

Conditions at: KCTY observed 17 November 2018  15:55 UTC
Temperature: 15.7°C (60°F)
Dewpoint: 5.7°C (42°F) [RH = 51%]
Pressure (altimeter): 30.25 inches Hg (1024.5 mb)
Winds: from the ENE (60 degrees) at 7 MPH (6 knots; 3.1 m/s)
Visibility: 10 or more miles (16+ km)
Ceiling: at least 12,000 feet AGL
Clouds: sky clear below 12,000 feet AGL
Present Weather: automated observation with no human augmentation;
there may or may not be significant weather present at this time
KCTY 171555Z AUTO 06006KT 10SM CLR 16/06 A3025 RMK AO2 T01570057

Conditions at: KCTY observed 17 November 2018  15:35 UTC
Temperature: 15.2°C (59°F)
Dewpoint: 5.8°C (42°F) [RH = 53%]
Pressure (altimeter): 30.25 inches Hg (1024.5 mb)
Winds: from the NNE (30 degrees) at 9 MPH (8 knots; 4.2 m/s)
Visibility: 10 or more miles (16+ km)
Ceiling: at least 12,000 feet AGL
Clouds: sky clear below 12,000 feet AGL
Present Weather: automated observation with no human augmentation;
there may or may not be significant weather present at this time
KCTY 171535Z AUTO 03008KT 10SM CLR 15/06 A3025 RMK AO2 T01520058

Conditions at: KCTY observed 17 November 2018  15:15 UTC
Temperature: 14.0°C (57°F)
Dewpoint: 5.7°C (42°F) [RH = 57%]
Pressure (altimeter): 30.25 inches Hg (1024.5 mb)
Winds: from the NE (50 degrees) at 8 MPH (7 knots; 3.6 m/s)
Visibility: 10 or more miles (16+ km)
Ceiling: at least 12,000 feet AGL
Clouds: sky clear below 12,000 feet AGL
Present Weather: automated observation with no human augmentation;
there may or may not be significant weather present at this time
KCTY 171515Z AUTO 05007KT 10SM CLR 14/06 A3025 RMK AO2 T01400057

Conditions at: KCTY observed 17 November 2018  14:50 UTC
Temperature: 12.9°C (55°F)
Dewpoint: 5.8°C (42°F) [RH = 62%]
Pressure (altimeter): 30.25 inches Hg (1024.5 mb)
Winds: from the NE (40 degrees) at 12 MPH (10 knots; 5.2 m/s)
Visibility: 10 or more miles (16+ km)
Ceiling: at least 12,000 feet AGL
Clouds: sky clear below 12,000 feet AGL
Present Weather: automated observation with no human augmentation;
there may or may not be significant weather present at this time
KCTY 171450Z AUTO 04010KT 10SM CLR 13/06 A3025 RMK AO2 T01290058

Conditions at: KCTY observed 17 November 2018  14:35 UTC
Temperature: 12.4°C (54°F)
Dewpoint: 6.8°C (44°F) [RH = 69%]
Pressure (altimeter): 30.25 inches Hg (1024.5 mb)
Winds: from the NNE (30 degrees) at 9 MPH (8 knots; 4.2 m/s)
Visibility: 10 or more miles (16+ km)
Ceiling: at least 12,000 feet AGL
Clouds: sky clear below 12,000 feet AGL
Present Weather: automated observation with no human augmentation;
there may or may not be significant weather present at this time
KCTY 171435Z AUTO 03008KT 020V080 10SM CLR 12/07 A3025 RMK AO2 T01240068

Conditions at: KCTY observed 17 November 2018  14:15 UTC
Temperature: 11.0°C (52°F)
Dewpoint: 6.8°C (44°F) [RH = 75%]
Pressure (altimeter): 30.25 inches Hg (1024.5 mb)
Winds: from the NE (50 degrees) at 6 MPH (5 knots; 2.6 m/s)
Visibility: 10 or more miles (16+ km)
Ceiling: at least 12,000 feet AGL
Clouds: sky clear below 12,000 feet AGL
Present Weather: automated observation with no human augmentation;
there may or may not be significant weather present at this time
KCTY 171415Z AUTO 05005KT 10SM CLR 11/07 A3025 RMK AO2 T01100068

Conditions at: KCTY observed 17 November 2018  13:55 UTC
Temperature: 9.6°C (49°F)
Dewpoint: 6.6°C (44°F) [RH = 82%]
Pressure (altimeter): 30.25 inches Hg (1024.5 mb)
Winds: from the NE (40 degrees) at 6 MPH (5 knots; 2.6 m/s)
Visibility: 10 or more miles (16+ km)
Ceiling: at least 12,000 feet AGL
Clouds: sky clear below 12,000 feet AGL
Present Weather: automated observation with no human augmentation;
there may or may not be significant weather present at this time
KCTY 171355Z AUTO 04005KT 10SM CLR 10/07 A3025 RMK AO2 T00960066

Conditions at: KCTY observed 17 November 2018  13:35 UTC
Temperature: 8.0°C (46°F)
Dewpoint: 6.1°C (43°F) [RH = 88%]
Pressure (altimeter): 30.25 inches Hg (1024.5 mb)
Winds: from the NNE (30 degrees) at 6 MPH (5 knots; 2.6 m/s)
Visibility: 10 or more miles (16+ km)
Ceiling: at least 12,000 feet AGL
Clouds: sky clear below 12,000 feet AGL
Present Weather: automated observation with no human augmentation;
there may or may not be significant weather present at this time
KCTY 171335Z AUTO 03005KT 10SM CLR 08/06 A3025 RMK AO2 T00800061

Conditions at: KCTY observed 17 November 2018  13:15 UTC
Temperature: 6.1°C (43°F)
Dewpoint: 4.9°C (41°F) [RH = 92%]
Pressure (altimeter): 30.25 inches Hg (1024.5 mb)
Winds: from the NNE (30 degrees) at 6 MPH (5 knots; 2.6 m/s)
Visibility: 10 or more miles (16+ km)
Ceiling: at least 12,000 feet AGL
Clouds: sky clear below 12,000 feet AGL
Present Weather: automated observation with no human augmentation;
there may or may not be significant weather present at this time
KCTY 171315Z AUTO 03005KT 10SM CLR 06/05 A3025 RMK AO2 T00610049

Conditions at: KCTY observed 17 November 2018  12:55 UTC
Temperature: 3.8°C (39°F)
Dewpoint: 3.1°C (38°F) [RH = 95%]
Pressure (altimeter): 30.25 inches Hg (1024.5 mb)
Winds: calm
Visibility: 10 or more miles (16+ km)
Ceiling: at least 12,000 feet AGL
Clouds: sky clear below 12,000 feet AGL
Present Weather: automated observation with no human augmentation;
there may or may not be significant weather present at this time
KCTY 171255Z AUTO 00000KT 10SM CLR 04/03 A3025 RMK AO2 T00380031

Conditions at: KCTY observed 17 November 2018  12:35 UTC
Temperature: 1.8°C (35°F)
Dewpoint: 1.2°C (34°F) [RH = 96%]
Pressure (altimeter): 30.24 inches Hg (1024.1 mb)
Winds: calm
Visibility: 10 or more miles (16+ km)
Ceiling: at least 12,000 feet AGL
Clouds: sky clear below 12,000 feet AGL
Present Weather: automated observation with no human augmentation;
there may or may not be significant weather present at this time
KCTY 171235Z AUTO 00000KT 10SM CLR 02/01 A3024 RMK AO2 T00180012

Conditions at: KCTY observed 17 November 2018  12:15 UTC
Temperature: 1.1°C (34°F)
Dewpoint: 0.4°C (33°F) [RH = 95%]
Pressure (altimeter): 30.24 inches Hg (1024.1 mb)
Winds: calm
Visibility: 10 or more miles (16+ km)
Ceiling: at least 12,000 feet AGL
Clouds: sky clear below 12,000 feet AGL
Present Weather: automated observation with no human augmentation;
there may or may not be significant weather present at this time
KCTY 171215Z AUTO 00000KT 10SM CLR 01/00 A3024 RMK AO2 T00110004

Conditions at: KCTY observed 17 November 2018  11:55 UTC
Temperature: 1.0°C (34°F)
Dewpoint: 0.3°C (33°F) [RH = 95%]
Pressure (altimeter): 30.23 inches Hg (1023.8 mb)
Winds: calm
Visibility: 10 or more miles (16+ km)
Ceiling: at least 12,000 feet AGL
Clouds: sky clear below 12,000 feet AGL
Present Weather: automated observation with no human augmentation;
there may or may not be significant weather present at this time
KCTY 171155Z AUTO 00000KT 10SM CLR 01/00 A3023 RMK AO2 T00100003 10028 20007